Saint-Philippe-De-Neri, Canada
Current Conditions -  °F | °C
As of 3:53 AM on Wednesday 26 Nov 2014 (Local Time) from KFVE Reporting Station
Overcast Overcast  
Wind Chill: 26°   Ceiling: 4700
Heat Index: 35°   Visibility: 10mi
Dew Point: 22°   Wind: 14mph
Humidity: 59%   Direction: 260°W
Pressure: 29.96"   Gusts: 24mph
Location:  47.45°N, 69.88°W
Report Text: KFVE 260853Z AUTO 26012G21KT 10SM OVC047 02/M06 A2996 RMK AO2 PK WND 25030/0809 SLP155 60000 T00171056 51031
Loading
Personal Weather Stations






























Interactive Weather Map New forecast layout! Learn more

10-Day Weather Forecast

Advertisements
Track Severe Weather on mobile